Language: 


Des rapports , des résumés tant et plus, au choix de chacun....


Données Historiques de Météogheer
Journalier Rapport pour Février 10, 2018 Unitée:  Les deux    Impériale   Métrique
Suivant Jour »
Journalier Hebdomadaire Mensuel Annuel Sur mesure
  Max: Min: Moyenne:
Température: 46.2 °F /  7.9 °C 31.8 °F /  -0.1 °C 38.7 °F /  3.7 °C
Point de rosée: 37.4 °F /  3.0 °C 30.2 °F /  -1.0 °C 35.1 °F /  1.7 °C
Humidité: 98% 62% 86%
Vent: 17.7mph /  28.5km/h - 5mph /  8km/h
Rafales: 19.9mph /  32.0km/h - -
Vent- - WSW
Pression: 30.1 in /  1018.2 hPa 29.7 in /  1005.0 hPa -
Pluie: 0.2 in /  5.1 mm    
Historical Graphs
 
 
Données tabulaires pour Février 10, 2018
Heure Température Point de rosée Pression Vent Vent Rafales Humidité Pluie Taux (Horaire) Conditions
00:04 36.3 °F /  2.4 °C 37.4 °F /  3.0 °C 29.9in /  1014.1hPa West 4.3mph /  6.9km/h 4.3mph /  6.9km/h 98% 0.05in /  1.3mm
00:09 36.1 °F /  2.3 °C 37.4 °F /  3.0 °C 29.9in /  1014.1hPa West 4.3mph /  6.9km/h 4.3mph /  6.9km/h 98% 0.04in /  1.0mm
00:14 36 °F /  2.2 °C 35.6 °F /  2.0 °C 29.9in /  1013.1hPa West 4.3mph /  6.9km/h 4.3mph /  6.9km/h 98% 0.05in /  1.3mm
00:19 35.8 °F /  2.1 °C 35.6 °F /  2.0 °C 29.9in /  1013.1hPa West 4.3mph /  6.9km/h 4.3mph /  6.9km/h 98% 0.05in /  1.3mm
00:24 35.8 °F /  2.1 °C 35.6 °F /  2.0 °C 29.9in /  1013.1hPa West 4.3mph /  6.9km/h 4.3mph /  6.9km/h 98% 0.05in /  1.3mm
00:29 35.8 °F /  2.1 °C 35.6 °F /  2.0 °C 29.9in /  1013.1hPa West 4.3mph /  6.9km/h 4.3mph /  6.9km/h 98% 0.06in /  1.5mm
00:34 35.8 °F /  2.1 °C 35.6 °F /  2.0 °C 29.9in /  1013.1hPa West 4.3mph /  6.9km/h 4.3mph /  6.9km/h 98% 0.06in /  1.5mm
00:39 35.8 °F /  2.1 °C 35.6 °F /  2.0 °C 29.9in /  1013.1hPa West 4.3mph /  6.9km/h 4.3mph /  6.9km/h 98% 0.05in /  1.3mm
00:44 36 °F /  2.2 °C 35.6 °F /  2.0 °C 29.9in /  1013.1hPa West 4.3mph /  6.9km/h 4.3mph /  6.9km/h 98% 0.05in /  1.3mm
00:49 36.3 °F /  2.4 °C 37.4 °F /  3.0 °C 29.9in /  1013.1hPa West 4.3mph /  6.9km/h 4.3mph /  6.9km/h 98% 0.05in /  1.3mm
00:54 36.7 °F /  2.6 °C 37.4 °F /  3.0 °C 29.9in /  1013.1hPa West 4.3mph /  6.9km/h 4.3mph /  6.9km/h 98% 0.03in /  0.8mm
00:59 36.9 °F /  2.7 °C 37.4 °F /  3.0 °C 29.9in /  1014.1hPa West 4.3mph /  6.9km/h 4.3mph /  6.9km/h 98% 0.05in /  1.3mm
01:04 36.9 °F /  2.7 °C 37.4 °F /  3.0 °C 29.9in /  1014.1hPa West 4.3mph /  6.9km/h 4.3mph /  6.9km/h 98% 0.03in /  0.8mm
01:09 37 °F /  2.8 °C 37.4 °F /  3.0 °C 29.9in /  1014.1hPa West 4.3mph /  6.9km/h 4.3mph /  6.9km/h 98% 0.03in /  0.8mm
01:14 37 °F /  2.8 °C 37.4 °F /  3.0 °C 29.9in /  1014.1hPa West 4.3mph /  6.9km/h 4.3mph /  6.9km/h 98% 0.02in /  0.5mm
01:19 37 °F /  2.8 °C 37.4 °F /  3.0 °C 29.9in /  1014.1hPa West 4.3mph /  6.9km/h 4.3mph /  6.9km/h 98% 0.02in /  0.5mm
01:25 37.2 °F /  2.9 °C 37.4 °F /  3.0 °C 29.9in /  1014.1hPa West 4.3mph /  6.9km/h 4.3mph /  6.9km/h 98% 0.02in /  0.5mm
01:30 37.2 °F /  2.9 °C 37.4 °F /  3.0 °C 29.9in /  1014.1hPa West 4.3mph /  6.9km/h 4.3mph /  6.9km/h 98% 0.01in /  0.3mm
01:35 37 °F /  2.8 °C 37.4 °F /  3.0 °C 29.9in /  1014.1hPa West 4.3mph /  6.9km/h 4.3mph /  6.9km/h 98% 0.01in /  0.3mm
01:40 37 °F /  2.8 °C 37.4 °F /  3.0 °C 29.9in /  1014.1hPa West 4.3mph /  6.9km/h 4.3mph /  6.9km/h 98% 0.01in /  0.3mm
01:45 37 °F /  2.8 °C 37.4 °F /  3.0 °C 29.9in /  1014.1hPa West 4.3mph /  6.9km/h 4.3mph /  6.9km/h 98% 0.02in /  0.5mm
01:50 37.2 °F /  2.9 °C 37.4 °F /  3.0 °C 29.9in /  1014.1hPa West 4.3mph /  6.9km/h 4.3mph /  6.9km/h 98% 0.02in /  0.5mm
01:55 37.2 °F /  2.9 °C 37.4 °F /  3.0 °C 29.9in /  1014.1hPa West 4.3mph /  6.9km/h 4.3mph /  6.9km/h 98% 0.01in /  0.3mm
02:00 37.2 °F /  2.9 °C 37.4 °F /  3.0 °C 29.9in /  1014.1hPa West 4.3mph /  6.9km/h 4.3mph /  6.9km/h 98% 0.01in /  0.3mm
02:05 37.2 °F /  2.9 °C 37.4 °F /  3.0 °C 29.9in /  1014.1hPa West 4.3mph /  6.9km/h 4.3mph /  6.9km/h 98% 0.01in /  0.3mm
02:10 37.4 °F /  3.0 °C 37.4 °F /  3.0 °C 29.9in /  1014.1hPa West 4.3mph /  6.9km/h 4.3mph /  6.9km/h 98% 0.01in /  0.3mm
02:15 37.4 °F /  3.0 °C 37.4 °F /  3.0 °C 29.9in /  1014.1hPa West 4.3mph /  6.9km/h 4.3mph /  6.9km/h 98% 0.01in /  0.3mm
02:20 37.4 °F /  3.0 °C 37.4 °F /  3.0 °C 29.9in /  1014.1hPa West 4.3mph /  6.9km/h 4.3mph /  6.9km/h 98% 0.01in /  0.3mm
02:25 37.4 °F /  3.0 °C 37.4 °F /  3.0 °C 29.9in /  1014.1hPa West 4.3mph /  6.9km/h 4.3mph /  6.9km/h 97% 0.01in /  0.3mm
02:30 37.4 °F /  3.0 °C 37.4 °F /  3.0 °C 29.9in /  1014.1hPa West 4.3mph /  6.9km/h 4.3mph /  6.9km/h 97% 0.01in /  0.3mm
02:35 37.4 °F /  3.0 °C 37.4 °F /  3.0 °C 29.9in /  1014.1hPa West 4.3mph /  6.9km/h 4.3mph /  6.9km/h 97% 0.01in /  0.3mm
02:40 37.4 °F /  3.0 °C 37.4 °F /  3.0 °C 29.9in /  1014.1hPa West 4.3mph /  6.9km/h 4.3mph /  6.9km/h 97% 0.01in /  0.3mm
02:45 37.4 °F /  3.0 °C 37.4 °F /  3.0 °C 30in /  1015.1hPa West 4.3mph /  6.9km/h 4.3mph /  6.9km/h 97% 0in /  0.0mm
02:50 37.4 °F /  3.0 °C 37.4 °F /  3.0 °C 30in /  1015.1hPa West 4.3mph /  6.9km/h 4.3mph /  6.9km/h 97% 0in /  0.0mm
02:55 37.4 °F /  3.0 °C 37.4 °F /  3.0 °C 30in /  1015.1hPa West 4.3mph /  6.9km/h 4.3mph /  6.9km/h 97% 0in /  0.0mm
03:01 37.4 °F /  3.0 °C 37.4 °F /  3.0 °C 30in /  1015.1hPa West 4.3mph /  6.9km/h 4.3mph /  6.9km/h 96% 0in /  0.0mm
03:06 37.4 °F /  3.0 °C 37.4 °F /  3.0 °C 30in /  1015.1hPa West 4.3mph /  6.9km/h 4.3mph /  6.9km/h 96% 0in /  0.0mm
03:11 37.6 °F /  3.1 °C 37.4 °F /  3.0 °C 30in /  1015.1hPa West 4.3mph /  6.9km/h 4.3mph /  6.9km/h 96% 0in /  0.0mm
03:16 37.6 °F /  3.1 °C 37.4 °F /  3.0 °C 30in /  1015.1hPa West 4.3mph /  6.9km/h 4.3mph /  6.9km/h 96% 0in /  0.0mm
03:21 37.4 °F /  3.0 °C 37.4 °F /  3.0 °C 30in /  1015.1hPa West 4.3mph /  6.9km/h 4.3mph /  6.9km/h 95% 0in /  0.0mm
03:26 37.4 °F /  3.0 °C 37.4 °F /  3.0 °C 30in /  1015.1hPa West 4.3mph /  6.9km/h 4.3mph /  6.9km/h 95% 0in /  0.0mm
03:31 37.4 °F /  3.0 °C 37.4 °F /  3.0 °C 30in /  1015.1hPa West 4.3mph /  6.9km/h 4.3mph /  6.9km/h 95% 0in /  0.0mm
03:36 37.6 °F /  3.1 °C 37.4 °F /  3.0 °C 30in /  1015.1hPa West 4.3mph /  6.9km/h 4.3mph /  6.9km/h 95% 0.01in /  0.3mm
03:41 37.6 °F /  3.1 °C 37.4 °F /  3.0 °C 30in /  1015.1hPa West 4.3mph /  6.9km/h 4.3mph /  6.9km/h 95% 0.01in /  0.3mm
03:46 37.6 °F /  3.1 °C 35.6 °F /  2.0 °C 30in /  1015.1hPa West 4.3mph /  6.9km/h 4.3mph /  6.9km/h 94% 0.01in /  0.3mm
03:51 37.6 °F /  3.1 °C 35.6 °F /  2.0 °C 30in /  1015.1hPa West 4.3mph /  6.9km/h 4.3mph /  6.9km/h 94% 0.01in /  0.3mm
03:56 37.6 °F /  3.1 °C 35.6 °F /  2.0 °C 30in /  1015.1hPa West 4.3mph /  6.9km/h 4.3mph /  6.9km/h 94% 0.01in /  0.3mm
04:01 37.6 °F /  3.1 °C 35.6 °F /  2.0 °C 30in /  1015.1hPa West 4.3mph /  6.9km/h 4.3mph /  6.9km/h 94% 0.01in /  0.3mm
04:06 37.6 °F /  3.1 °C 35.6 °F /  2.0 °C 30in /  1015.1hPa West 4.3mph /  6.9km/h 4.3mph /  6.9km/h 93% 0.01in /  0.3mm
04:11 37.4 °F /  3.0 °C 35.6 °F /  2.0 °C 30in /  1015.1hPa West 4.3mph /  6.9km/h 4.3mph /  6.9km/h 92% 0.01in /  0.3mm
04:16 37 °F /  2.8 °C 35.6 °F /  2.0 °C 30in /  1015.1hPa West 4.3mph /  6.9km/h 4.3mph /  6.9km/h 92% 0.01in /  0.3mm
04:21 36.9 °F /  2.7 °C 35.6 °F /  2.0 °C 30in /  1015.1hPa WNW 2.7mph /  4.3km/h 2.7mph /  4.3km/h 92% 0.01in /  0.3mm
04:26 36.7 °F /  2.6 °C 35.6 °F /  2.0 °C 30in /  1015.1hPa WNW 2.7mph /  4.3km/h 2.7mph /  4.3km/h 92% 0.01in /  0.3mm
04:31 36.5 °F /  2.5 °C 35.6 °F /  2.0 °C 30in /  1015.1hPa West 4mph /  6.4km/h 4mph /  6.4km/h 92% 0.01in /  0.3mm
04:36 36.3 °F /  2.4 °C 33.8 °F /  1.0 °C 30in /  1015.1hPa Calm   4mph /  6.4km/h 92% 0in /  0.0mm
04:41 36.3 °F /  2.4 °C 35.6 °F /  2.0 °C 30in /  1015.1hPa Calm   2.5mph /  4.0km/h 93% 0in /  0.0mm
04:46 36.1 °F /  2.3 °C 35.6 °F /  2.0 °C 30in /  1015.1hPa West 3.8mph /  6.1km/h 3.8mph /  6.1km/h 93% 0in /  0.0mm
04:51 36.1 °F /  2.3 °C 35.6 °F /  2.0 °C 30in /  1015.1hPa West 3.8mph /  6.1km/h 3.8mph /  6.1km/h 93% 0in /  0.0mm
04:56 36 °F /  2.2 °C 33.8 °F /  1.0 °C 30in /  1015.1hPa West 2.7mph /  4.3km/h 3.8mph /  6.1km/h 93% 0in /  0.0mm
05:01 35.8 °F /  2.1 °C 33.8 °F /  1.0 °C 30in /  1015.1hPa West 3.1mph /  5.0km/h 3.8mph /  6.1km/h 93% 0in /  0.0mm
05:06 35.8 °F /  2.1 °C 33.8 °F /  1.0 °C 30in /  1015.1hPa WNW 3.1mph /  5.0km/h 3.1mph /  5.0km/h 93% 0in /  0.0mm
05:11 35.6 °F /  2.0 °C 33.8 °F /  1.0 °C 30in /  1015.1hPa WSW 3.4mph /  5.5km/h 3.4mph /  5.5km/h 93% 0in /  0.0mm
05:16 35.6 °F /  2.0 °C 33.8 °F /  1.0 °C 30in /  1015.1hPa West 2.9mph /  4.7km/h 3.4mph /  5.5km/h 93% 0in /  0.0mm
05:21 35.4 °F /  1.9 °C 33.8 °F /  1.0 °C 30in /  1015.1hPa West 2.9mph /  4.7km/h 3.4mph /  5.5km/h 94% 0in /  0.0mm
05:26 35.4 °F /  1.9 °C 33.8 °F /  1.0 °C 30in /  1015.1hPa West 3.4mph /  5.5km/h 3.4mph /  5.5km/h 94% 0in /  0.0mm
05:31 35.2 °F /  1.8 °C 33.8 °F /  1.0 °C 30in /  1015.1hPa West 1.3mph /  2.1km/h 4.9mph /  7.9km/h 94% 0in /  0.0mm
05:36 35.1 °F /  1.7 °C 33.8 °F /  1.0 °C 30in /  1015.1hPa West 2.5mph /  4.0km/h 4.9mph /  7.9km/h 94% 0in /  0.0mm
05:41 34.9 °F /  1.6 °C 33.8 °F /  1.0 °C 30in /  1015.1hPa West 2.7mph /  4.3km/h 4.3mph /  6.9km/h 94% 0in /  0.0mm
05:46 34.5 °F /  1.4 °C 33.8 °F /  1.0 °C 30in /  1015.1hPa SSW 2.2mph /  3.5km/h 3.6mph /  5.8km/h 93% 0in /  0.0mm
05:52 34.3 °F /  1.3 °C 33.8 °F /  1.0 °C 30in /  1015.1hPa Calm   2.7mph /  4.3km/h 93% 0in /  0.0mm
05:57 34 °F /  1.1 °C 32 °F /  0.0 °C 30in /  1015.1hPa West 4.3mph /  6.9km/h 4.3mph /  6.9km/h 93% 0in /  0.0mm
06:02 34 °F /  1.1 °C 32 °F /  0.0 °C 30in /  1015.1hPa West 5.4mph /  8.7km/h 5.4mph /  8.7km/h 93% 0in /  0.0mm
06:07 33.8 °F /  1.0 °C 32 °F /  0.0 °C 30in /  1015.1hPa West 3.8mph /  6.1km/h 6.3mph /  10.1km/h 94% 0in /  0.0mm
06:12 33.8 °F /  1.0 °C 32 °F /  0.0 °C 30in /  1015.1hPa Calm   6.3mph /  10.1km/h 94% 0in /  0.0mm
06:17 33.6 °F /  0.9 °C 32 °F /  0.0 °C 30in /  1015.1hPa Calm   4.3mph /  6.9km/h 94% 0in /  0.0mm
06:22 33.4 °F /  0.8 °C 32 °F /  0.0 °C 30in /  1015.1hPa West 2.5mph /  4.0km/h 4.3mph /  6.9km/h 94% 0in /  0.0mm
06:27 33.1 °F /  0.6 °C 32 °F /  0.0 °C 30in /  1015.1hPa Calm   4mph /  6.4km/h 94% 0in /  0.0mm
06:28 33.1 °F /  0.6 °C 32 °F /  0.0 °C 30in /  1015.1hPa Calm   4mph /  6.4km/h 94% 0in /  0.0mm
06:33 32.7 °F /  0.4 °C 32 °F /  0.0 °C 30in /  1015.1hPa Calm   2.5mph /  4.0km/h 94% 0in /  0.0mm
06:38 32.7 °F /  0.4 °C 32 °F /  0.0 °C 30in /  1015.1hPa Calm     94% 0in /  0.0mm
06:43 32.5 °F /  0.3 °C 32 °F /  0.0 °C 30in /  1015.1hPa Calm     94% 0in /  0.0mm
06:48 32.5 °F /  0.3 °C 32 °F /  0.0 °C 30in /  1015.1hPa Calm     95% 0in /  0.0mm
06:53 32.5 °F /  0.3 °C 32 °F /  0.0 °C 30in /  1015.1hPa Calm     95% 0in /  0.0mm
06:58 32.5 °F /  0.3 °C 32 °F /  0.0 °C 30in /  1015.1hPa Calm     95% 0in /  0.0mm
07:03 32.5 °F /  0.3 °C 32 °F /  0.0 °C 30in /  1015.1hPa Calm     96% 0in /  0.0mm
07:08 32.5 °F /  0.3 °C 32 °F /  0.0 °C 30in /  1015.1hPa Calm     96% 0in /  0.0mm
07:13 32.5 °F /  0.3 °C 32 °F /  0.0 °C 30in /  1015.1hPa Calm     96% 0in /  0.0mm
07:18 32.4 °F /  0.2 °C 32 °F /  0.0 °C 30in /  1015.1hPa West 3.6mph /  5.8km/h 3.6mph /  5.8km/h 96% 0in /  0.0mm
07:23 32.4 °F /  0.2 °C 32 °F /  0.0 °C 30in /  1015.1hPa West 4.7mph /  7.6km/h 4.7mph /  7.6km/h 96% 0in /  0.0mm
07:28 32.4 °F /  0.2 °C 32 °F /  0.0 °C 30in /  1015.1hPa WSW 4.5mph /  7.2km/h 4.7mph /  7.6km/h 97% 0in /  0.0mm
07:33 32.4 °F /  0.2 °C 32 °F /  0.0 °C 30in /  1015.1hPa Calm   4.7mph /  7.6km/h 97% 0in /  0.0mm
07:38 32.2 °F /  0.1 °C 32 °F /  0.0 °C 30in /  1015.1hPa West 1.6mph /  2.6km/h 4.5mph /  7.2km/h 97% 0in /  0.0mm
07:43 32.2 °F /  0.1 °C 32 °F /  0.0 °C 30in /  1016.1hPa West 1.6mph /  2.6km/h 1.6mph /  2.6km/h 97% 0in /  0.0mm
07:48 32 °F /  0.0 °C 30.2 °F /  -1.0 °C 30in /  1016.1hPa Calm   1.6mph /  2.6km/h 97% 0in /  0.0mm
07:53 32 °F /  0.0 °C 30.2 °F /  -1.0 °C 30in /  1016.1hPa Calm   1.6mph /  2.6km/h 97% 0in /  0.0mm
07:58 32 °F /  0.0 °C 30.2 °F /  -1.0 °C 30in /  1016.1hPa Calm     97% 0in /  0.0mm
08:04 31.8 °F /  -0.1 °C 30.2 °F /  -1.0 °C 30in /  1016.1hPa Calm     97% 0in /  0.0mm
08:09 31.8 °F /  -0.1 °C 30.2 °F /  -1.0 °C 30in /  1016.1hPa Calm     97% 0in /  0.0mm
08:14 31.8 °F /  -0.1 °C 30.2 °F /  -1.0 °C 30in /  1016.8hPa Calm     97% 0in /  0.0mm
08:19 31.8 °F /  -0.1 °C 30.2 °F /  -1.0 °C 30in /  1016.8hPa Calm     97% 0in /  0.0mm
08:24 31.8 °F /  -0.1 °C 30.2 °F /  -1.0 °C 30in /  1016.8hPa Calm     97% 0in /  0.0mm
08:29 31.8 °F /  -0.1 °C 30.2 °F /  -1.0 °C 30in /  1016.8hPa Calm     97% 0in /  0.0mm
08:34 31.8 °F /  -0.1 °C 30.2 °F /  -1.0 °C 30in /  1016.8hPa Calm     97% 0in /  0.0mm
08:39 31.8 °F /  -0.1 °C 30.2 °F /  -1.0 °C 30in /  1016.8hPa Calm     98% 0in /  0.0mm
08:44 32 °F /  0.0 °C 30.2 °F /  -1.0 °C 30in /  1016.8hPa Calm     98% 0in /  0.0mm
08:49 32.4 °F /  0.2 °C 32 °F /  0.0 °C 30in /  1016.8hPa Calm     98% 0in /  0.0mm
08:51 32.4 °F /  0.2 °C 32 °F /  0.0 °C 30in /  1016.8hPa Calm     98% 0in /  0.0mm
08:56 32.5 °F /  0.3 °C 33.8 °F /  1.0 °C 30in /  1016.8hPa Calm     98% 0in /  0.0mm
09:01 32.7 °F /  0.4 °C 33.8 °F /  1.0 °C 30in /  1016.8hPa Calm     98% 0in /  0.0mm
09:06 32.7 °F /  0.4 °C 33.8 °F /  1.0 °C 30in /  1016.8hPa Calm     98% 0in /  0.0mm
09:11 32.9 °F /  0.5 °C 33.8 °F /  1.0 °C 30in /  1016.8hPa Calm     98% 0in /  0.0mm
09:16 33.1 °F /  0.6 °C 33.8 °F /  1.0 °C 30in /  1016.8hPa Calm     98% 0in /  0.0mm
09:21 33.3 °F /  0.7 °C 33.8 °F /  1.0 °C 30in /  1016.8hPa Calm     98% 0in /  0.0mm
09:26 33.8 °F /  1.0 °C 33.8 °F /  1.0 °C 30in /  1016.8hPa Calm     98% 0in /  0.0mm
09:31 34 °F /  1.1 °C 33.8 °F /  1.0 °C 30in /  1016.8hPa Calm     98% 0in /  0.0mm
09:36 34.3 °F /  1.3 °C 33.8 °F /  1.0 °C 30in /  1016.8hPa Calm     98% 0in /  0.0mm
09:41 34.7 °F /  1.5 °C 35.6 °F /  2.0 °C 30in /  1016.8hPa Calm     98% 0in /  0.0mm
09:46 34.9 °F /  1.6 °C 35.6 °F /  2.0 °C 30in /  1016.8hPa Calm     98% 0in /  0.0mm
09:51 35.2 °F /  1.8 °C 35.6 °F /  2.0 °C 30in /  1016.8hPa Calm     98% 0in /  0.0mm
09:56 35.6 °F /  2.0 °C 35.6 °F /  2.0 °C 30in /  1016.8hPa Calm     98% 0in /  0.0mm
10:01 35.8 °F /  2.1 °C 35.6 °F /  2.0 °C 30.1in /  1018.2hPa Calm     98% 0in /  0.0mm
10:06 36.1 °F /  2.3 °C 35.6 °F /  2.0 °C 30.1in /  1018.2hPa Calm     97% 0in /  0.0mm
10:11 36.3 °F /  2.4 °C 35.6 °F /  2.0 °C 30.1in /  1018.2hPa Calm     97% 0in /  0.0mm
10:16 36.9 °F /  2.7 °C 37.4 °F /  3.0 °C 30in /  1016.8hPa Calm     97% 0in /  0.0mm
10:22 37 °F /  2.8 °C 37.4 °F /  3.0 °C 30in /  1016.8hPa Calm     96% 0in /  0.0mm
10:27 37.4 °F /  3.0 °C 37.4 °F /  3.0 °C 30in /  1016.8hPa Calm     95% 0in /  0.0mm
10:32 37.9 °F /  3.3 °C 37.4 °F /  3.0 °C 30in /  1016.1hPa Calm     95% 0in /  0.0mm
10:37 38.5 °F /  3.6 °C 37.4 °F /  3.0 °C 30in /  1016.1hPa Calm     95% 0in /  0.0mm
10:42 38.8 °F /  3.8 °C 37.4 °F /  3.0 °C 30in /  1016.1hPa Calm     94% 0in /  0.0mm
10:47 39.2 °F /  4.0 °C 37.4 °F /  3.0 °C 30in /  1016.8hPa Calm     92% 0in /  0.0mm
10:52 39.6 °F /  4.2 °C 37.4 °F /  3.0 °C 30in /  1016.8hPa Calm     90% 0in /  0.0mm
10:57 39.9 °F /  4.4 °C 37.4 °F /  3.0 °C 30in /  1016.8hPa Calm     89% 0in /  0.0mm
11:02 40.1 °F /  4.5 °C 37.4 °F /  3.0 °C 30in /  1016.8hPa Calm     88% 0in /  0.0mm
11:07 40.5 °F /  4.7 °C 37.4 °F /  3.0 °C 30in /  1016.8hPa Calm     87% 0in /  0.0mm
11:12 40.6 °F /  4.8 °C 37.4 °F /  3.0 °C 30in /  1016.8hPa Calm     87% 0in /  0.0mm
11:17 41 °F /  5.0 °C 37.4 °F /  3.0 °C 30in /  1016.8hPa Calm     86% 0in /  0.0mm
11:22 41.5 °F /  5.3 °C 37.4 °F /  3.0 °C 30in /  1016.8hPa Calm     86% 0in /  0.0mm
11:27 41.7 °F /  5.4 °C 37.4 °F /  3.0 °C 30in /  1016.8hPa Calm     85% 0in /  0.0mm
11:32 41.9 °F /  5.5 °C 37.4 °F /  3.0 °C 30in /  1016.8hPa Calm     84% 0in /  0.0mm
11:37 42.3 °F /  5.7 °C 37.4 °F /  3.0 °C 30in /  1016.8hPa Calm     82% 0in /  0.0mm
11:42 42.3 °F /  5.7 °C 37.4 °F /  3.0 °C 30in /  1016.8hPa Calm     82% 0in /  0.0mm
11:47 42.8 °F /  6.0 °C 37.4 °F /  3.0 °C 30in /  1016.8hPa Calm     79% 0.01in /  0.3mm
11:52 42.8 °F /  6.0 °C 37.4 °F /  3.0 °C 30in /  1016.8hPa Calm     77% 0.01in /  0.3mm
11:57 43 °F /  6.1 °C 35.6 °F /  2.0 °C 30in /  1016.8hPa Calm     76% 0.01in /  0.3mm
12:02 43.3 °F /  6.3 °C 37.4 °F /  3.0 °C 30in /  1016.8hPa Calm     75% 0.01in /  0.3mm
12:07 43.5 °F /  6.4 °C 35.6 °F /  2.0 °C 30in /  1016.8hPa Calm     74% 0.01in /  0.3mm
12:12 43.7 °F /  6.5 °C 35.6 °F /  2.0 °C 30in /  1016.8hPa Calm     73% 0.01in /  0.3mm
12:17 44.1 °F /  6.7 °C 37.4 °F /  3.0 °C 30in /  1016.1hPa Calm     74% 0.01in /  0.3mm
12:22 44.2 °F /  6.8 °C 35.6 °F /  2.0 °C 30in /  1016.1hPa Calm     73% 0.01in /  0.3mm
12:27 44.4 °F /  6.9 °C 37.4 °F /  3.0 °C 30in /  1016.1hPa Calm     72% 0.01in /  0.3mm
12:32 44.8 °F /  7.1 °C 35.6 °F /  2.0 °C 30in /  1016.1hPa Calm     71% 0.01in /  0.3mm
12:37 44.8 °F /  7.1 °C 35.6 °F /  2.0 °C 30in /  1016.1hPa Calm     69% 0.01in /  0.3mm
12:43 45.1 °F /  7.3 °C 35.6 °F /  2.0 °C 30in /  1016.1hPa Calm     68% 0.01in /  0.3mm
12:48 45.5 °F /  7.5 °C 35.6 °F /  2.0 °C 30in /  1015.1hPa Calm     67% 0in /  0.0mm
12:53 45.9 °F /  7.7 °C 35.6 °F /  2.0 °C 30in /  1015.1hPa Calm     68% 0in /  0.0mm
12:58 45.7 °F /  7.6 °C 35.6 °F /  2.0 °C 30in /  1015.1hPa Calm     67% 0in /  0.0mm
13:03 45.9 °F /  7.7 °C 35.6 °F /  2.0 °C 30in /  1015.1hPa West 5.4mph /  8.7km/h 5.4mph /  8.7km/h 65% 0in /  0.0mm
13:08 45.3 °F /  7.4 °C 33.8 °F /  1.0 °C 30in /  1015.1hPa West 5.4mph /  8.7km/h 5.4mph /  8.7km/h 63% 0.01in /  0.3mm
13:13 45.1 °F /  7.3 °C 33.8 °F /  1.0 °C 30in /  1015.1hPa West 5.4mph /  8.7km/h 5.4mph /  8.7km/h 64% 0.01in /  0.3mm
13:18 45.5 °F /  7.5 °C 35.6 °F /  2.0 °C 30in /  1015.1hPa West 5.4mph /  8.7km/h 5.4mph /  8.7km/h 67% 0.01in /  0.3mm
13:23 46 °F /  7.8 °C 35.6 °F /  2.0 °C 30in /  1015.1hPa West 5.4mph /  8.7km/h 5.4mph /  8.7km/h 67% 0.01in /  0.3mm
13:28 45.9 °F /  7.7 °C 33.8 °F /  1.0 °C 30in /  1015.1hPa West 5.4mph /  8.7km/h 5.4mph /  8.7km/h 63% 0.01in /  0.3mm
13:33 46 °F /  7.8 °C 33.8 °F /  1.0 °C 30in /  1015.1hPa West 5.4mph /  8.7km/h 5.4mph /  8.7km/h 63% 0.01in /  0.3mm
13:38 46.2 °F /  7.9 °C 35.6 °F /  2.0 °C 30in /  1015.1hPa West 5.4mph /  8.7km/h 5.4mph /  8.7km/h 64% 0.01in /  0.3mm
13:43 46 °F /  7.8 °C 33.8 °F /  1.0 °C 30in /  1015.1hPa West 5.4mph /  8.7km/h 5.4mph /  8.7km/h 62% 0.01in /  0.3mm
13:49 45.9 °F /  7.7 °C 33.8 °F /  1.0 °C 30in /  1015.1hPa WSW 8.7mph /  14.0km/h 8.7mph /  14.0km/h 63% 0.01in /  0.3mm
13:54 45.7 °F /  7.6 °C 35.6 °F /  2.0 °C 30in /  1015.1hPa WSW 8.9mph /  14.3km/h 10.3mph /  16.6km/h 65% 0.01in /  0.3mm
13:59 46.2 °F /  7.9 °C 35.6 °F /  2.0 °C 30in /  1015.1hPa WSW 8.9mph /  14.3km/h 10.3mph /  16.6km/h 64% 0.03in /  0.8mm
14:04 45.9 °F /  7.7 °C 33.8 °F /  1.0 °C 30in /  1015.1hPa WSW 8.9mph /  14.3km/h 8.9mph /  14.3km/h 62% 0.03in /  0.8mm
14:09 46 °F /  7.8 °C 33.8 °F /  1.0 °C 30in /  1015.1hPa WSW 8.9mph /  14.3km/h 8.9mph /  14.3km/h 63% 0.01in /  0.3mm
14:14 45.9 °F /  7.7 °C 33.8 °F /  1.0 °C 30in /  1015.1hPa WSW 8.9mph /  14.3km/h 8.9mph /  14.3km/h 63% 0.01in /  0.3mm
14:19 46 °F /  7.8 °C 33.8 °F /  1.0 °C 30in /  1015.1hPa WSW 8.9mph /  14.3km/h 8.9mph /  14.3km/h 63% 0.01in /  0.3mm
14:24 46 °F /  7.8 °C 33.8 °F /  1.0 °C 30in /  1015.1hPa WSW 8.9mph /  14.3km/h 8.9mph /  14.3km/h 64% 0.01in /  0.3mm
14:29 45.7 °F /  7.6 °C 33.8 °F /  1.0 °C 29.9in /  1014.1hPa WSW 8.9mph /  14.3km/h 8.9mph /  14.3km/h 63% 0.01in /  0.3mm
14:34 45.9 °F /  7.7 °C 35.6 °F /  2.0 °C 29.9in /  1014.1hPa WSW 8.9mph /  14.3km/h 8.9mph /  14.3km/h 65% 0.01in /  0.3mm
14:39 45.5 °F /  7.5 °C 35.6 °F /  2.0 °C 29.9in /  1014.1hPa WSW 8.9mph /  14.3km/h 8.9mph /  14.3km/h 65% 0.01in /  0.3mm
14:44 45.1 °F /  7.3 °C 33.8 °F /  1.0 °C 30in /  1015.1hPa WSW 8.9mph /  14.3km/h 8.9mph /  14.3km/h 65% 0.01in /  0.3mm
14:49 44.8 °F /  7.1 °C 33.8 °F /  1.0 °C 30in /  1015.1hPa WSW 8.9mph /  14.3km/h 8.9mph /  14.3km/h 65% 0.01in /  0.3mm
14:54 44.6 °F /  7.0 °C 33.8 °F /  1.0 °C 30in /  1015.1hPa WSW 8.9mph /  14.3km/h 8.9mph /  14.3km/h 66% 0.01in /  0.3mm
14:59 44.2 °F /  6.8 °C 33.8 °F /  1.0 °C 29.9in /  1014.1hPa WSW 8.9mph /  14.3km/h 8.9mph /  14.3km/h 66% 0in /  0.0mm
15:04 44.2 °F /  6.8 °C 33.8 °F /  1.0 °C 29.9in /  1014.1hPa WSW 7.6mph /  12.2km/h 7.6mph /  12.2km/h 67% 0.01in /  0.3mm
15:09 45 °F /  7.2 °C 33.8 °F /  1.0 °C 29.9in /  1014.1hPa WSW 7.6mph /  12.2km/h 7.6mph /  12.2km/h 66% 0.01in /  0.3mm
15:14 45 °F /  7.2 °C 35.6 °F /  2.0 °C 29.9in /  1014.1hPa WSW 7.6mph /  12.2km/h 7.6mph /  12.2km/h 67% 0.01in /  0.3mm
15:19 44.8 °F /  7.1 °C 33.8 °F /  1.0 °C 29.9in /  1014.1hPa WSW 7.6mph /  12.2km/h 7.6mph /  12.2km/h 67% 0.01in /  0.3mm
15:24 45.1 °F /  7.3 °C 33.8 °F /  1.0 °C 29.9in /  1014.1hPa WSW 7.6mph /  12.2km/h 7.6mph /  12.2km/h 66% 0.01in /  0.3mm
15:29 45 °F /  7.2 °C 33.8 °F /  1.0 °C 29.9in /  1014.1hPa WSW 7.6mph /  12.2km/h 7.6mph /  12.2km/h 66% 0.01in /  0.3mm
15:34 44.6 °F /  7.0 °C 33.8 °F /  1.0 °C 29.9in /  1014.1hPa WSW 7.6mph /  12.2km/h 7.6mph /  12.2km/h 65% 0.01in /  0.3mm
15:40 44.2 °F /  6.8 °C 33.8 °F /  1.0 °C 29.9in /  1014.1hPa SW 7.8mph /  12.6km/h 7.8mph /  12.6km/h 67% 0.01in /  0.3mm
15:45 44.2 °F /  6.8 °C 33.8 °F /  1.0 °C 29.9in /  1014.1hPa SW 7.8mph /  12.6km/h 7.8mph /  12.6km/h 67% 0.01in /  0.3mm
15:50 44.4 °F /  6.9 °C 33.8 °F /  1.0 °C 29.9in /  1014.1hPa SW 7.8mph /  12.6km/h 7.8mph /  12.6km/h 67% 0.01in /  0.3mm
15:55 45 °F /  7.2 °C 33.8 °F /  1.0 °C 29.9in /  1014.1hPa SW 7.8mph /  12.6km/h 7.8mph /  12.6km/h 66% 0.01in /  0.3mm
16:00 44.8 °F /  7.1 °C 33.8 °F /  1.0 °C 29.9in /  1014.1hPa SW 7.8mph /  12.6km/h 7.8mph /  12.6km/h 64% 0.01in /  0.3mm
16:05 44.4 °F /  6.9 °C 33.8 °F /  1.0 °C 29.9in /  1014.1hPa SW 7.8mph /  12.6km/h 7.8mph /  12.6km/h 65% 0in /  0.0mm
16:10 44.1 °F /  6.7 °C 33.8 °F /  1.0 °C 29.9in /  1014.1hPa SW 7.8mph /  12.6km/h 7.8mph /  12.6km/h 64% 0in /  0.0mm
16:15 43.9 °F /  6.6 °C 33.8 °F /  1.0 °C 29.9in /  1013.1hPa SW 7.8mph /  12.6km/h 7.8mph /  12.6km/h 65% 0in /  0.0mm
16:20 43.9 °F /  6.6 °C 33.8 °F /  1.0 °C 29.9in /  1013.1hPa SW 7.8mph /  12.6km/h 7.8mph /  12.6km/h 64% 0in /  0.0mm
16:25 43.9 °F /  6.6 °C 33.8 °F /  1.0 °C 29.9in /  1013.1hPa SW 7.8mph /  12.6km/h 7.8mph /  12.6km/h 65% 0in /  0.0mm
16:30 43.5 °F /  6.4 °C 33.8 °F /  1.0 °C 29.9in /  1013.1hPa SW 7.8mph /  12.6km/h 7.8mph /  12.6km/h 67% 0in /  0.0mm
16:35 43.2 °F /  6.2 °C 33.8 °F /  1.0 °C 29.9in /  1013.1hPa SW 7.8mph /  12.6km/h 7.8mph /  12.6km/h 68% 0in /  0.0mm
16:40 43 °F /  6.1 °C 32 °F /  0.0 °C 29.9in /  1013.1hPa SW 7.8mph /  12.6km/h 7.8mph /  12.6km/h 66% 0in /  0.0mm
16:45 42.8 °F /  6.0 °C 33.8 °F /  1.0 °C 29.9in /  1013.1hPa SW 7.8mph /  12.6km/h 7.8mph /  12.6km/h 67% 0in /  0.0mm
16:50 42.4 °F /  5.8 °C 33.8 °F /  1.0 °C 29.9in /  1013.1hPa SW 7.8mph /  12.6km/h 7.8mph /  12.6km/h 68% 0in /  0.0mm
16:55 42.4 °F /  5.8 °C 33.8 °F /  1.0 °C 29.9in /  1013.1hPa SW 7.8mph /  12.6km/h 7.8mph /  12.6km/h 69% 0in /  0.0mm
17:00 42.3 °F /  5.7 °C 33.8 °F /  1.0 °C 29.9in /  1013.1hPa SW 7.8mph /  12.6km/h 7.8mph /  12.6km/h 70% 0in /  0.0mm
17:05 42.1 °F /  5.6 °C 33.8 °F /  1.0 °C 29.9in /  1013.1hPa SW 7.8mph /  12.6km/h 7.8mph /  12.6km/h 71% 0in /  0.0mm
17:10 41.9 °F /  5.5 °C 33.8 °F /  1.0 °C 29.9in /  1013.1hPa SW 7.8mph /  12.6km/h 7.8mph /  12.6km/h 71% 0in /  0.0mm
17:15 41.7 °F /  5.4 °C 33.8 °F /  1.0 °C 29.9in /  1013.1hPa SW 7.8mph /  12.6km/h 7.8mph /  12.6km/h 71% 0in /  0.0mm
17:20 41.7 °F /  5.4 °C 33.8 °F /  1.0 °C 29.9in /  1013.1hPa SW 7.8mph /  12.6km/h 7.8mph /  12.6km/h 71% 0in /  0.0mm
17:25 41.5 °F /  5.3 °C 33.8 °F /  1.0 °C 29.9in /  1013.1hPa SW 7.8mph /  12.6km/h 7.8mph /  12.6km/h 72% 0in /  0.0mm
17:30 41.4 °F /  5.2 °C 33.8 °F /  1.0 °C 29.9in /  1012.1hPa SW 7.8mph /  12.6km/h 7.8mph /  12.6km/h 72% 0in /  0.0mm
17:35 41.2 °F /  5.1 °C 33.8 °F /  1.0 °C 29.9in /  1012.1hPa SW 7.8mph /  12.6km/h 7.8mph /  12.6km/h 72% 0in /  0.0mm
17:40 41.2 °F /  5.1 °C 33.8 °F /  1.0 °C 29.9in /  1012.1hPa SW 7.8mph /  12.6km/h 7.8mph /  12.6km/h 72% 0in /  0.0mm
17:45 41.2 °F /  5.1 °C 33.8 °F /  1.0 °C 29.9in /  1012.1hPa SW 7.8mph /  12.6km/h 7.8mph /  12.6km/h 72% 0in /  0.0mm
17:51 41 °F /  5.0 °C 33.8 °F /  1.0 °C 29.9in /  1012.1hPa SW 7.8mph /  12.6km/h 7.8mph /  12.6km/h 73% 0in /  0.0mm
17:56 41 °F /  5.0 °C 33.8 °F /  1.0 °C 29.9in /  1012.1hPa SW 7.8mph /  12.6km/h 7.8mph /  12.6km/h 73% 0in /  0.0mm
18:01 40.8 °F /  4.9 °C 33.8 °F /  1.0 °C 29.9in /  1011.1hPa SW 7.8mph /  12.6km/h 7.8mph /  12.6km/h 74% 0in /  0.0mm
18:06 40.6 °F /  4.8 °C 33.8 °F /  1.0 °C 29.9in /  1011.1hPa SW 7.8mph /  12.6km/h 7.8mph /  12.6km/h 75% 0in /  0.0mm
18:11 40.5 °F /  4.7 °C 33.8 °F /  1.0 °C 29.9in /  1011.1hPa SW 7.8mph /  12.6km/h 7.8mph /  12.6km/h 75% 0in /  0.0mm
18:16 40.5 °F /  4.7 °C 33.8 °F /  1.0 °C 29.9in /  1011.1hPa SW 7.8mph /  12.6km/h 7.8mph /  12.6km/h 75% 0in /  0.0mm
18:21 40.3 °F /  4.6 °C 33.8 °F /  1.0 °C 29.9in /  1011.1hPa SW 7.8mph /  12.6km/h 7.8mph /  12.6km/h 75% 0in /  0.0mm
18:26 40.3 °F /  4.6 °C 33.8 °F /  1.0 °C 29.9in /  1011.1hPa SW 7.8mph /  12.6km/h 7.8mph /  12.6km/h 76% 0in /  0.0mm
18:31 40.1 °F /  4.5 °C 33.8 °F /  1.0 °C 29.9in /  1011.1hPa SW 7.8mph /  12.6km/h 7.8mph /  12.6km/h 76% 0in /  0.0mm
18:36 39.9 °F /  4.4 °C 33.8 °F /  1.0 °C 29.9in /  1011.1hPa SW 7.8mph /  12.6km/h 7.8mph /  12.6km/h 76% 0in /  0.0mm
18:41 39.9 °F /  4.4 °C 33.8 °F /  1.0 °C 29.9in /  1011.1hPa SW 7.8mph /  12.6km/h 7.8mph /  12.6km/h 76% 0in /  0.0mm
18:46 39.9 °F /  4.4 °C 33.8 °F /  1.0 °C 29.9in /  1011.1hPa SW 7.8mph /  12.6km/h 7.8mph /  12.6km/h 76% 0in /  0.0mm
18:51 39.7 °F /  4.3 °C 33.8 °F /  1.0 °C 29.9in /  1011.1hPa SW 7.8mph /  12.6km/h 7.8mph /  12.6km/h 76% 0in /  0.0mm
18:56 39.7 °F /  4.3 °C 33.8 °F /  1.0 °C 29.9in /  1011.1hPa SW 7.8mph /  12.6km/h 7.8mph /  12.6km/h 76% 0in /  0.0mm
19:01 39.7 °F /  4.3 °C 33.8 °F /  1.0 °C 29.9in /  1011.1hPa SW 7.8mph /  12.6km/h 7.8mph /  12.6km/h 76% 0in /  0.0mm
19:06 39.6 °F /  4.2 °C 33.8 °F /  1.0 °C 29.9in /  1011.1hPa SW 7.8mph /  12.6km/h 7.8mph /  12.6km/h 77% 0in /  0.0mm
19:11 39.4 °F /  4.1 °C 33.8 °F /  1.0 °C 29.9in /  1011.1hPa SW 7.8mph /  12.6km/h 7.8mph /  12.6km/h 77% 0in /  0.0mm
19:16 39.4 °F /  4.1 °C 33.8 °F /  1.0 °C 29.9in /  1011.1hPa SW 7.8mph /  12.6km/h 7.8mph /  12.6km/h 77% 0in /  0.0mm
19:21 39.2 °F /  4.0 °C 33.8 °F /  1.0 °C 29.9in /  1011.1hPa SW 7.8mph /  12.6km/h 7.8mph /  12.6km/h 78% 0in /  0.0mm
19:26 39 °F /  3.9 °C 33.8 °F /  1.0 °C 29.9in /  1011.1hPa SW 7.8mph /  12.6km/h 7.8mph /  12.6km/h 80% 0in /  0.0mm
19:31 38.8 °F /  3.8 °C 33.8 °F /  1.0 °C 29.8in /  1010.0hPa SW 7.8mph /  12.6km/h 7.8mph /  12.6km/h 80% 0in /  0.0mm
19:36 38.8 °F /  3.8 °C 33.8 °F /  1.0 °C 29.8in /  1010.0hPa SW 7.8mph /  12.6km/h 7.8mph /  12.6km/h 80% 0in /  0.0mm
19:41 38.8 °F /  3.8 °C 33.8 °F /  1.0 °C 29.8in /  1010.0hPa SW 7.8mph /  12.6km/h 7.8mph /  12.6km/h 80% 0in /  0.0mm
19:46 38.8 °F /  3.8 °C 33.8 °F /  1.0 °C 29.8in /  1010.0hPa SW 7.8mph /  12.6km/h 7.8mph /  12.6km/h 80% 0in /  0.0mm
19:51 38.8 °F /  3.8 °C 33.8 °F /  1.0 °C 29.8in /  1010.0hPa SW 7.8mph /  12.6km/h 7.8mph /  12.6km/h 81% 0in /  0.0mm
19:56 38.8 °F /  3.8 °C 33.8 °F /  1.0 °C 29.8in /  1010.0hPa SW 7.8mph /  12.6km/h 7.8mph /  12.6km/h 82% 0in /  0.0mm
20:01 38.8 °F /  3.8 °C 33.8 °F /  1.0 °C 29.8in /  1009.0hPa SW 7.8mph /  12.6km/h 7.8mph /  12.6km/h 83% 0in /  0.0mm
20:06 38.8 °F /  3.8 °C 33.8 °F /  1.0 °C 29.8in /  1009.0hPa SW 7.8mph /  12.6km/h 7.8mph /  12.6km/h 84% 0in /  0.0mm
20:11 38.8 °F /  3.8 °C 33.8 °F /  1.0 °C 29.8in /  1009.0hPa SW 7.8mph /  12.6km/h 7.8mph /  12.6km/h 84% 0in /  0.0mm
20:16 38.8 °F /  3.8 °C 35.6 °F /  2.0 °C 29.8in /  1009.0hPa SW 7.8mph /  12.6km/h 7.8mph /  12.6km/h 85% 0in /  0.0mm
20:22 38.8 °F /  3.8 °C 35.6 °F /  2.0 °C 29.8in /  1009.0hPa SW 7.8mph /  12.6km/h 7.8mph /  12.6km/h 85% 0in /  0.0mm
20:27 38.8 °F /  3.8 °C 35.6 °F /  2.0 °C 29.8in /  1009.0hPa SW 7.8mph /  12.6km/h 7.8mph /  12.6km/h 85% 0in /  0.0mm
20:32 38.8 °F /  3.8 °C 35.6 °F /  2.0 °C 29.8in /  1009.0hPa SW 7.8mph /  12.6km/h 7.8mph /  12.6km/h 85% 0in /  0.0mm
20:37 38.7 °F /  3.7 °C 35.6 °F /  2.0 °C 29.8in /  1009.0hPa SW 7.8mph /  12.6km/h 7.8mph /  12.6km/h 85% 0in /  0.0mm
20:42 38.7 °F /  3.7 °C 35.6 °F /  2.0 °C 29.8in /  1009.0hPa SW 7.8mph /  12.6km/h 7.8mph /  12.6km/h 86% 0in /  0.0mm
20:47 38.5 °F /  3.6 °C 35.6 °F /  2.0 °C 29.8in /  1008.0hPa SW 7.8mph /  12.6km/h 7.8mph /  12.6km/h 86% 0in /  0.0mm
20:52 38.5 °F /  3.6 °C 35.6 °F /  2.0 °C 29.8in /  1008.0hPa SW 7.8mph /  12.6km/h 7.8mph /  12.6km/h 87% 0in /  0.0mm
20:57 38.3 °F /  3.5 °C 35.6 °F /  2.0 °C 29.8in /  1008.0hPa SW 7.8mph /  12.6km/h 7.8mph /  12.6km/h 88% 0in /  0.0mm
21:02 38.3 °F /  3.5 °C 35.6 °F /  2.0 °C 29.8in /  1009.0hPa SW 7.8mph /  12.6km/h 7.8mph /  12.6km/h 89% 0in /  0.0mm
21:07 38.1 °F /  3.4 °C 35.6 °F /  2.0 °C 29.8in /  1009.0hPa SW 7.8mph /  12.6km/h 7.8mph /  12.6km/h 90% 0.01in /  0.3mm
21:12 38.1 °F /  3.4 °C 35.6 °F /  2.0 °C 29.8in /  1009.0hPa SSW 10.5mph /  16.9km/h 10.5mph /  16.9km/h 91% 0.01in /  0.3mm
21:17 37.9 °F /  3.3 °C 35.6 °F /  2.0 °C 29.8in /  1008.0hPa SSW 12.1mph /  19.5km/h 12.1mph /  19.5km/h 92% 0.01in /  0.3mm
21:22 37.9 °F /  3.3 °C 37.4 °F /  3.0 °C 29.8in /  1008.0hPa SSW 12.1mph /  19.5km/h 12.1mph /  19.5km/h 93% 0.02in /  0.5mm
21:27 37.9 °F /  3.3 °C 37.4 °F /  3.0 °C 29.8in /  1008.0hPa SW 11mph /  17.7km/h 12.1mph /  19.5km/h 93% 0.02in /  0.5mm
21:32 37.9 °F /  3.3 °C 37.4 °F /  3.0 °C 29.8in /  1008.0hPa SSW 8.1mph /  13.0km/h 12.1mph /  19.5km/h 94% 0.02in /  0.5mm
21:37 37.8 °F /  3.2 °C 37.4 °F /  3.0 °C 29.8in /  1008.0hPa South 6.5mph /  10.5km/h 12.8mph /  20.6km/h 94% 0.03in /  0.8mm
21:42 37.9 °F /  3.3 °C 37.4 °F /  3.0 °C 29.8in /  1008.0hPa South 11.4mph /  18.3km/h 12.8mph /  20.6km/h 95% 0.03in /  0.8mm
21:47 37.9 °F /  3.3 °C 37.4 °F /  3.0 °C 29.7in /  1007.0hPa South 11.4mph /  18.3km/h 11.4mph /  18.3km/h 95% 0.03in /  0.8mm
21:52 37.9 °F /  3.3 °C 37.4 °F /  3.0 °C 29.7in /  1007.0hPa South 11.4mph /  18.3km/h 11.4mph /  18.3km/h 96% 0.05in /  1.3mm
21:57 37.8 °F /  3.2 °C 37.4 °F /  3.0 °C 29.7in /  1007.0hPa South 11.4mph /  18.3km/h 11.4mph /  18.3km/h 96% 0.06in /  1.5mm
22:02 37.8 °F /  3.2 °C 37.4 °F /  3.0 °C 29.7in /  1007.0hPa South 11.4mph /  18.3km/h 11.4mph /  18.3km/h 97% 0.06in /  1.5mm
22:07 37.8 °F /  3.2 °C 37.4 °F /  3.0 °C 29.7in /  1007.0hPa South 11.4mph /  18.3km/h 11.4mph /  18.3km/h 97% 0.05in /  1.3mm
22:13 37.8 °F /  3.2 °C 37.4 °F /  3.0 °C 29.7in /  1007.0hPa South 11.4mph /  18.3km/h 11.4mph /  18.3km/h 97% 0.06in /  1.5mm
22:18 37.8 °F /  3.2 °C 37.4 °F /  3.0 °C 29.7in /  1007.0hPa South 11.4mph /  18.3km/h 11.4mph /  18.3km/h 97% 0.06in /  1.5mm
22:23 37.8 °F /  3.2 °C 37.4 °F /  3.0 °C 29.7in /  1007.0hPa SW 13.2mph /  21.2km/h 13.2mph /  21.2km/h 98% 0.05in /  1.3mm
22:28 37.8 °F /  3.2 °C 37.4 °F /  3.0 °C 29.7in /  1007.0hPa SSW 17.7mph /  28.5km/h 17.7mph /  28.5km/h 98% 0.05in /  1.3mm
22:33 37.6 °F /  3.1 °C 37.4 °F /  3.0 °C 29.7in /  1007.0hPa SSW 12.1mph /  19.5km/h 17.7mph /  28.5km/h 98% 0.03in /  0.8mm
22:34 37.6 °F /  3.1 °C 37.4 °F /  3.0 °C 29.7in /  1007.0hPa SSW 17.7mph /  28.5km/h 17.7mph /  28.5km/h 98% 0.03in /  0.8mm
22:39 37.6 °F /  3.1 °C 37.4 °F /  3.0 °C 29.7in /  1007.0hPa SSW 13.6mph /  21.9km/h 17.7mph /  28.5km/h 98% 0.03in /  0.8mm
22:44 37.6 °F /  3.1 °C 37.4 °F /  3.0 °C 29.7in /  1006.0hPa South 9.8mph /  15.8km/h 19.9mph /  32.0km/h 98% 0.05in /  1.3mm
22:49 37.6 °F /  3.1 °C 37.4 °F /  3.0 °C 29.7in /  1006.0hPa South 9.8mph /  15.8km/h 19.9mph /  32.0km/h 98% 0.04in /  1.0mm
22:54 37.6 °F /  3.1 °C 37.4 °F /  3.0 °C 29.7in /  1006.0hPa South 9.8mph /  15.8km/h 19.9mph /  32.0km/h 98% 0.04in /  1.0mm
22:59 37.6 °F /  3.1 °C 37.4 °F /  3.0 °C 29.7in /  1006.0hPa South 9.8mph /  15.8km/h 9.8mph /  15.8km/h 98% 0.03in /  0.8mm
23:04 37.6 °F /  3.1 °C 37.4 °F /  3.0 °C 29.7in /  1006.0hPa South 9.8mph /  15.8km/h 9.8mph /  15.8km/h 98% 0.03in /  0.8mm
23:09 37.6 °F /  3.1 °C 37.4 °F /  3.0 °C 29.7in /  1006.0hPa South 9.8mph /  15.8km/h 9.8mph /  15.8km/h 98% 0.03in /  0.8mm
23:14 37.6 °F /  3.1 °C 37.4 °F /  3.0 °C 29.7in /  1005.0hPa South 9.8mph /  15.8km/h 9.8mph /  15.8km/h 98% 0.01in /  0.3mm
23:19 37.6 °F /  3.1 °C 37.4 °F /  3.0 °C 29.7in /  1005.0hPa South 9.8mph /  15.8km/h 9.8mph /  15.8km/h 98% 0.01in /  0.3mm
23:24 37.6 °F /  3.1 °C 37.4 °F /  3.0 °C 29.7in /  1005.0hPa South 9.8mph /  15.8km/h 9.8mph /  15.8km/h 98% 0.01in /  0.3mm
23:29 37.6 °F /  3.1 °C 37.4 °F /  3.0 °C 29.7in /  1005.0hPa South 9.8mph /  15.8km/h 9.8mph /  15.8km/h 98% 0.01in /  0.3mm
23:34 37.6 °F /  3.1 °C 37.4 °F /  3.0 °C 29.7in /  1005.0hPa South 9.8mph /  15.8km/h 9.8mph /  15.8km/h 98% 0.01in /  0.3mm
23:39 37.8 °F /  3.2 °C 37.4 °F /  3.0 °C 29.7in /  1005.0hPa South 9.8mph /  15.8km/h 9.8mph /  15.8km/h 98% 0.01in /  0.3mm
23:44 37.8 °F /  3.2 °C 37.4 °F /  3.0 °C 29.7in /  1005.0hPa South 9.8mph /  15.8km/h 9.8mph /  15.8km/h 98% 0in /  0.0mm
23:49 37.8 °F /  3.2 °C 37.4 °F /  3.0 °C 29.7in /  1005.0hPa South 9.8mph /  15.8km/h 9.8mph /  15.8km/h 98% 0in /  0.0mm
23:54 37.8 °F /  3.2 °C 37.4 °F /  3.0 °C 29.7in /  1005.0hPa South 9.8mph /  15.8km/h 9.8mph /  15.8km/h 98% 0in /  0.0mm
Données Historique de Météo Turbie

Mise a jour : 25/05/2018 06:52:16
Généré par Cumulus 1.9.4 (1099)